Portada
METAR-TAF:

METAR-TAF

Aeroports :

Mae Hong Son, Tailàndia

latitud: 19-18N, longitud: 097-50E, altitud: 267 m

Observació

L'informe es va fer fa 1 hora i 4 minuts, a les 03:00 UTC
Temperatura 24°C
Humitat 69%
Pressió 1017 hPa
Visibilitat 10 km o més
Escasses núvols a una alçada de 2500 ft

METAR: VTCH 210300Z /////KT 9999 FEW025 24/18 Q1017 NOSIG

Hora: 11:04 (04:04 UTC)

Pronòstic

L'informe es va fer fa 5 hores i 4 minuts, a les 23:00 UTC
Pronòstic vàlid del 21 a les 00 UTC al 21 a les 24 UTC
Vent 5 kt del Nord/Nord-Est
Visibilitat: 0800 m
Escasses núvols a una alçada de 2500 ft
boira
Evolucionant progressivament
l' 21 a les 01 UTC al 21 a les 03 UTC
Visibilitat 10 km o més

TAF: VTCH 202300Z 2100/2124 03005KT 0800 FG FEW025 BECMG 2101/2103 9999 NSW

Observacions i pronòstics meteorològics de més de 4000 aeroports (METAR i TAF).

Les estacions disponibles són els punts grocs i vermells al mapa.

Posi el ratolí al punt desitjat per veure el nom de l'estació.

Feu clic per veure les observacions i els pronòstics meteorològics.

Per canviar el mapa: feu clic els botons verds amb una creu de color negre per apropar; al botó verd amb un guió per allunyar la imatge; o en les fletxes verdes per a mapes adjacents.


METAR-TAF: